Pilot Magazine UKGA

About You

Log In Register UKGA membership

Flight planning

Flight planning New flightplan NOTAM map LARS map & NOTAMs Danger area, mil. & TRA activations Weather map GPS route download Find waypoints Your waypoints New waypoint

Forums

Forums Currently discussing "England light aircraft aircraft fly to Wales and Scotland?"

Other items

Articles Events Links News Surveys Tips Other users Feedback UKGA membership About UKGA

METARs

UK

EGAA 280720Z 06002KT CAVOK 14/10 Q1034
EGAC 280720Z AUTO VRB02KT 9999 NCD 14/08 Q1034
EGAE 271620Z 05012KT 9999 FEW044 17/11 Q1036
EGBB 280720Z 11006KT 090V160 CAVOK 14/09 Q1036
EGBJ 280720Z 07004KT 040V120 CAVOK 17/09 Q1035
EGCC 280720Z AUTO VRB03KT 9999 NCD 15/10 Q1035
EGCK 280720Z AUTO VRB02KT 9999 NCD 18/10 Q1033
EGCN 280720Z VRB03KT 9999 SCT009 11/09 Q1037
EGDM 280650Z AUTO 09010KT 9999 NCD 14/10 Q1034
EGDR 280716Z 08016KT CAVOK 16/12 Q1032 BLU NOSIG RMK BLU BLU
EGDY 280650Z 10006KT CAVOK 16/09 Q1034 BLU
EGEC 280720Z 12013KT 9999 OVC048 13/09 Q1034
EGEO 280720Z 28002KT 9999 FEW040 12/09 Q1034
EGFF 280720Z AUTO 10008KT 9999 NCD 16/10 Q1034
EGGD 280720Z AUTO 10008KT 9999 NCD 15/10 Q1035
EGGP 280720Z 14007KT 070V190 CAVOK 15/10 Q1035
EGGW 280720Z AUTO 09007KT 060V130 9999 BKN009 13/09 Q1036
EGHC 280720Z 10019KT CAVOK 16/12 Q1031
EGHE 271520Z 04012KT CAVOK 16/13 Q1034
EGHH 280720Z 09008KT CAVOK 17/08 Q1034
EGHI 271320Z VRB02KT 9999 SCT048 24/10 Q1034 
EGHQ 280720Z 11016KT CAVOK 18/10 Q1032
EGJA 271720Z 07014KT CAVOK 17/09 Q1033
EGJB 280650Z 08011KT CAVOK 16/10 Q1032
EGJJ 280720Z AUTO 08014KT 9999 NCD 17/10 Q1032
EGKA 271650Z 15006KT CAVOK 17/12 Q1034
EGKB 280720Z 06008KT 020V100 9999 BKN012 12/10 Q1036 
EGKK 280720Z 06011KT 9999 FEW016 15/10 Q1035
EGLC 280720Z AUTO 09011KT 9999 SCT016 15/09 Q1036
EGLF 280720Z AUTO 06008KT 9999 FEW014/// 14/09 Q1035
EGLL 280720Z AUTO 07006KT 020V110 9999 SCT016 14/09 Q1036
EGMC 280720Z 09011KT 9999 FEW020 15/07 Q1036
EGMD 280720Z AUTO 06015KT 9999 NCD 15/11 Q1035
EGNH 280720Z 14011KT CAVOK 16/10 Q1035
EGNJ 280720Z 20006KT 150V230 9999 FEW019 14/10 Q1037
EGNM 271450Z 03009KT 360V060 CAVOK 19/05 Q1036
EGNO 271320Z 32010KT 290V350 CAVOK 19/08 Q1036
EGNR 280720Z 15011KT CAVOK 14/10 Q1035
EGNS 280720Z 07010KT CAVOK 14/09 Q1034 NOSIG
EGNT 280720Z AUTO VRB03KT 9999 NCD 14/09 Q1035
EGNV 280720Z 19009KT 2500 BR BKN003 09/08 Q1036
EGNX 280720Z 08006KT 050V110 9999 FEW010 11/09 Q1036
EGOM 280650Z AUTO 23004KT 9999 NCD 14/07 Q1034
EGOP 280650Z AUTO 33002KT 9999 // NCD 17/12 Q1033
EGOS 280720Z 12006KT CAVOK 14/10 Q1035 NOSIG RMK BLU BLU
EGOV 280720Z 05001KT CAVOK 18/09 Q1033 NOSIG RMK BLU BLU
EGPA 280720Z AUTO 20011KT 9999 BKN004/// OVC018/// 10/10 Q1031
EGPB 280720Z 17012G24KT 7000 VCSH FEW007 BKN010 09/08 Q1032
EGPC 280720Z 19008KT 9999 FEW005 BKN023 10/09 Q1031
EGPD 280720Z AUTO 17007KT 9999 NCD 12/09 Q1032
EGPE 280720Z 22014KT 9999 SCT035 14/11 Q1031
EGPF 280720Z AUTO VRB02KT 9999 NCD 14/08 Q1034
EGPH 280720Z 25008KT 220V290 CAVOK 17/09 Q1034
EGPI 280720Z 14012KT 120V180 9999 BKN047 13/08 Q1033
EGPK 280720Z 17003KT CAVOK 15/09 Q1035
EGPL 280720Z 21009KT 9000 OVC005 12/11 Q1032
EGPM 280650Z 16014KT 9999 FEW015 10/08 Q1032
EGPN 271920Z 09006KT CAVOK 12/06 Q1037
EGPO 280720Z 25008KT 9999 VCSH FEW007 SCT012 13/12 Q1030
EGPU 280720Z 17007KT 9999 FEW025 13/10 Q1033
EGQK 280650Z AUTO 26007KT 9999 BKN032/// BKN050/// 14/11 Q1031 RERA
EGQL 280650Z 16001KT CAVOK 14/08 Q1033 BLU
EGQM 280650Z AUTO 16005KT 9999 SCT060/// 12/08 Q1035
EGQS 280707Z 03003KT 9999 FEW020 OVC027 12/10 Q1031 NOSIG RMK BLU BLU
EGSC 271650Z 03006KT 9999 FEW048 22/10 Q1034
EGSH 280720Z 11005KT 080V160 9999 FEW020 15/08 Q1037
EGSS 280720Z AUTO 11007KT 070V130 9999 NCD 14/09 Q1036
EGTC 271520Z 05004KT 2900V100 9999 FEW046 22/11 Q1034
EGTE 280720Z 09009KT CAVOK 17/07 Q1034
EGTK 280720Z 09007KT 060V120 CAVOK 13/09 Q1035
EGUB 280650Z AUTO 09006KT 9999 // NCD 14/09 Q1035
EGUL 280656Z AUTO 14006KT 9999 CLR 13/09 A3060 RMK AO2 SLP366 T01340089 $
EGUN 280656Z AUTO 12005KT 9999 CLR 13/13 A3060 RMK AO2 SLP365 T01290129 $
EGUW 280721Z 12008KT CAVOK 14/08 Q1036 NOSIG RMK BLU BLU
EGVA 280656Z AUTO 07007KT 9999 CLR 14/09 A3057 RMK AO2 SLP354 T01400090 $
EGVN 280720Z 08007KT CAVOK 14/08 Q1035 BLU NOSIG RMK BLU BLU
EGVO 280650Z AUTO 06008KT 9999 FEW007/// 13/10 Q1035
EGVP 280720Z 07009KT CAVOK 15/09 Q1034 NOSIG RMK BLU BLU
EGWU 280650Z AUTO 08007KT 9999 // FEW012/// 13/09 Q1036
EGXC 280650Z 14005KT 9999 FEW014 SCT300 13/10 Q1037 NOSIG RMK BLU BLU
EGXE 280650Z AUTO 17009KT 5000 BR OVC002/// 10/09 Q1036
EGXP 280650Z 17006KT 9999 SCT010 12/10 Q1036
EGXS 280650Z AUTO 16003KT 9999 // FEW010/// 13/10 Q1036
EGXT 280720Z 15005KT 9999 FEW009 13/10 Q1036 BLU
EGXU 280650Z AUTO 17004KT 6000 HZ OVC005/// 11/09 Q1036
EGXV 280650Z AUTO 22003KT 9000 HZ FEW010/// 12/09 Q1036
EGXW 280720Z 14007KT 9999 FEW005 13/09 Q1036 NOSIG RMK BLU BLU
EGXZ 280650Z AUTO 17007KT 3900 BR OVC003/// 10/09 Q1036
EGYD 280650Z 14008KT 9999 FEW008 SCT250 12/09 Q1037 NOSIG RMK BLU BLU
EGYE 271250Z 35009KT 9999 FEW040 ///// Q1035 RMK BLU
EGYH 271150Z 32003KT 9999 FEW040 21/10 Q1035 RMK BLU
EGYM 280650Z 13006KT CAVOK 13/09 Q1036 BLU
EGYP 280650Z 26010KT 9999 BKN020 03/03 Q1013

About You

Log In Register UKGA membership

Airfields

Interactive airfield map Search by name Search by postcode Search by location Fuel prices Pilot reviews Latest
(No favourites selected)

Flight planning

Flight planning New flightplan NOTAM map LARS map & NOTAMs Danger area, mil. & TRA activations Weather map GPS route download Find waypoints Your waypoints New waypoint

Forums

Forums Currently discussing "England light aircraft aircraft fly to Wales and Scotland?"

Other items

Articles Events Links News Surveys Tips Other users Feedback UKGA membership About UKGA